createdAt,value
2023-03-29T00:01:53.909Z,5.78
2023-03-29T00:06:56.997Z,5.76
2023-03-29T00:11:58.782Z,5.76
2023-03-29T00:17:00.885Z,5.77
2023-03-29T00:22:06.149Z,5.80
2023-03-29T00:27:08.057Z,5.84
2023-03-29T00:32:09.927Z,5.82
2023-03-29T00:37:14.826Z,5.75
2023-03-29T00:42:17.054Z,5.74
2023-03-29T00:47:19.237Z,5.83
2023-03-29T00:52:22.657Z,5.90
2023-03-29T00:57:27.654Z,5.96
2023-03-29T01:02:29.662Z,5.98
2023-03-29T01:07:35.246Z,5.98
2023-03-29T01:12:39.180Z,5.99
2023-03-29T01:17:41.417Z,6.02
2023-03-29T01:22:54.587Z,5.97
2023-03-29T01:27:58.993Z,5.95
2023-03-29T01:33:02.777Z,5.97
2023-03-29T01:38:07.341Z,5.98
2023-03-29T01:43:18.887Z,5.94
2023-03-29T01:48:24.317Z,5.93
2023-03-29T01:53:28.449Z,5.94
2023-03-29T01:58:33.947Z,5.90
2023-03-29T02:03:42.137Z,5.84
2023-03-29T02:08:44.701Z,5.83
2023-03-29T02:13:49.773Z,5.78
2023-03-29T02:18:52.791Z,5.72
2023-03-29T02:23:54.966Z,5.65
2023-03-29T02:28:58.033Z,5.61
2023-03-29T02:34:01.274Z,5.61
2023-03-29T02:39:05.730Z,5.60
2023-03-29T02:44:10.178Z,5.62
2023-03-29T02:49:12.099Z,5.59
2023-03-29T02:54:15.506Z,5.59
2023-03-29T02:59:19.516Z,5.60
2023-03-29T03:04:21.389Z,5.49
2023-03-29T03:09:24.072Z,5.43
2023-03-29T03:14:29.406Z,5.41
2023-03-29T03:19:33.140Z,5.44
2023-03-29T03:24:35.472Z,5.46
2023-03-29T03:29:39.032Z,5.52
2023-03-29T03:34:43.718Z,5.52
2023-03-29T03:39:46.235Z,5.49
2023-03-29T03:44:49.774Z,5.47
2023-03-29T03:50:11.598Z,5.45
2023-03-29T03:55:14.287Z,5.47
2023-03-29T04:00:42.643Z,5.45
2023-03-29T04:06:01.597Z,5.49
2023-03-29T04:11:11.384Z,5.52
2023-03-29T04:16:17.669Z,5.50
2023-03-29T04:21:21.343Z,5.46
2023-03-29T04:26:23.507Z,5.45
2023-03-29T04:31:33.234Z,5.42
2023-03-29T04:36:50.124Z,5.40
2023-03-29T04:41:55.650Z,5.31
2023-03-29T04:47:02.881Z,5.28
2023-03-29T04:52:24.281Z,5.28
2023-03-29T04:57:26.801Z,5.29
2023-03-29T05:02:57.788Z,5.35
2023-03-29T05:08:00.944Z,5.37
2023-03-29T05:13:12.282Z,5.39
2023-03-29T05:18:16.720Z,5.42
2023-03-29T05:23:18.839Z,5.41
2023-03-29T05:28:46.536Z,5.47
2023-03-29T05:33:49.755Z,5.49
2023-03-29T05:38:52.188Z,5.56
2023-03-29T05:43:56.249Z,5.59
2023-03-29T05:49:02.322Z,5.58
2023-03-29T05:54:22.976Z,5.66
2023-03-29T05:59:28.147Z,5.73
2023-03-29T06:04:31.824Z,5.78
2023-03-29T06:09:54.096Z,5.87
2023-03-29T06:14:58.183Z,5.91
2023-03-29T06:20:11.470Z,5.88
2023-03-29T06:25:17.496Z,5.95
2023-03-29T06:30:23.822Z,5.98
2023-03-29T06:35:30.178Z,6.09
2023-03-29T06:40:39.265Z,6.42
2023-03-29T06:45:42.612Z,6.73
2023-03-29T06:50:56.365Z,6.75
2023-03-29T06:56:05.161Z,6.72
2023-03-29T07:01:15.076Z,7.02
2023-03-29T07:06:29.788Z,7.24
2023-03-29T07:11:33.970Z,7.38
2023-03-29T07:16:47.338Z,7.52
2023-03-29T07:21:55.174Z,7.63
2023-03-29T07:27:05.182Z,7.65
2023-03-29T07:32:08.312Z,7.73
2023-03-29T07:37:20.738Z,7.84
2023-03-29T07:42:22.867Z,8.41
2023-03-29T07:47:25.978Z,8.86
2023-03-29T07:52:30.022Z,9.00
2023-03-29T07:57:32.519Z,9.06
2023-03-29T08:02:34.498Z,8.94
2023-03-29T08:07:39.658Z,9.39
2023-03-29T08:12:50.309Z,10.00
2023-03-29T08:17:54.699Z,10.29
2023-03-29T08:23:02.365Z,10.04
2023-03-29T08:28:08.573Z,9.91
2023-03-29T08:33:22.138Z,9.77
2023-03-29T08:38:34.103Z,9.72
2023-03-29T08:43:52.787Z,9.62
2023-03-29T08:49:05.033Z,9.52
2023-03-29T08:54:11.443Z,9.57
2023-03-29T08:59:33.076Z,9.40
2023-03-29T09:04:38.223Z,9.40
2023-03-29T09:10:12.086Z,9.59
2023-03-29T09:15:16.360Z,9.77
2023-03-29T09:20:33.192Z,9.80
2023-03-29T09:25:52.538Z,9.95
2023-03-29T09:31:00.131Z,10.09
2023-03-29T09:36:04.203Z,10.29
2023-03-29T09:41:17.234Z,10.43
2023-03-29T09:46:21.714Z,10.92
2023-03-29T09:51:24.857Z,11.45
2023-03-29T09:56:28.026Z,12.19
2023-03-29T10:01:41.393Z,12.11
2023-03-29T10:06:44.708Z,11.87
2023-03-29T10:11:48.517Z,11.45
2023-03-29T10:16:55.390Z,11.43
2023-03-29T10:21:59.178Z,11.56
2023-03-29T10:27:02.884Z,12.38
2023-03-29T10:32:13.826Z,12.27
2023-03-29T10:37:19.014Z,11.96
2023-03-29T10:42:23.748Z,12.29
2023-03-29T10:47:25.662Z,12.26
2023-03-29T10:52:29.197Z,11.80
2023-03-29T10:57:34.130Z,11.48
2023-03-29T11:02:59.900Z,11.54
2023-03-29T11:08:09.498Z,11.75
2023-03-29T11:13:15.119Z,11.46
2023-03-29T11:18:49.753Z,11.87
2023-03-29T11:23:57.487Z,11.85
2023-03-29T11:29:02.622Z,11.74
2023-03-29T11:34:12.527Z,11.75
2023-03-29T11:39:16.315Z,12.13
2023-03-29T11:44:20.623Z,12.90
2023-03-29T11:49:24.488Z,13.10
2023-03-29T11:54:28.437Z,12.47
2023-03-29T11:59:34.508Z,12.25
2023-03-29T12:04:38.617Z,12.65
2023-03-29T12:09:42.185Z,12.92
2023-03-29T12:14:49.303Z,13.00
2023-03-29T12:19:55.568Z,13.14
2023-03-29T12:24:57.696Z,12.47
2023-03-29T12:30:35.315Z,12.08
2023-03-29T12:35:40.998Z,12.05
2023-03-29T12:41:19.092Z,12.13
2023-03-29T12:46:41.132Z,12.06
2023-03-29T12:51:43.393Z,12.48
2023-03-29T12:56:55.066Z,12.79
2023-03-29T13:02:27.729Z,13.06
2023-03-29T13:07:31.999Z,13.79
2023-03-29T13:12:36.756Z,13.77
2023-03-29T13:17:45.146Z,13.66
2023-03-29T13:22:52.158Z,13.62
2023-03-29T13:27:57.121Z,14.02
2023-03-29T13:33:24.054Z,13.75
2023-03-29T13:38:31.826Z,13.47
2023-03-29T13:43:35.935Z,13.24
2023-03-29T13:48:58.458Z,12.89
2023-03-29T13:54:03.431Z,12.66
2023-03-29T13:59:09.718Z,12.73
2023-03-29T14:04:14.381Z,12.84
2023-03-29T14:09:16.056Z,12.87
2023-03-29T14:14:17.950Z,12.73
2023-03-29T14:19:24.187Z,12.80
2023-03-29T14:24:27.189Z,13.01
2023-03-29T14:29:30.845Z,13.07
2023-03-29T14:34:33.941Z,13.01
2023-03-29T14:39:35.736Z,13.02
2023-03-29T14:44:37.486Z,12.82
2023-03-29T14:49:40.570Z,12.68
2023-03-29T14:54:44.242Z,12.67
2023-03-29T14:59:50.218Z,12.62
2023-03-29T15:04:57.747Z,12.50
2023-03-29T15:09:59.880Z,12.43
2023-03-29T15:15:02.410Z,12.45
2023-03-29T15:20:10.960Z,12.16
2023-03-29T15:25:16.535Z,12.00
2023-03-29T15:30:18.651Z,11.97
2023-03-29T15:35:23.388Z,11.97
2023-03-29T15:40:26.305Z,11.89
2023-03-29T15:45:28.044Z,11.81
2023-03-29T15:50:31.716Z,11.78
2023-03-29T15:55:33.444Z,11.82
2023-03-29T16:00:35.402Z,11.88
2023-03-29T16:05:38.479Z,11.94
2023-03-29T16:10:40.490Z,11.99
2023-03-29T16:15:42.555Z,11.93
2023-03-29T16:20:46.538Z,11.95
2023-03-29T16:25:48.258Z,11.84
2023-03-29T16:30:50.303Z,11.81
2023-03-29T16:35:53.353Z,11.78
2023-03-29T16:40:55.109Z,11.77
2023-03-29T16:45:57.408Z,11.75
2023-03-29T16:51:00.930Z,11.75
2023-03-29T16:56:03.315Z,11.75
2023-03-29T17:01:09.703Z,11.72
2023-03-29T17:06:12.825Z,11.70
2023-03-29T17:11:15.542Z,11.65
2023-03-29T17:16:17.463Z,11.63
2023-03-29T17:21:21.231Z,11.57
2023-03-29T17:26:22.937Z,11.48
2023-03-29T17:31:24.702Z,11.43
2023-03-29T17:36:28.898Z,11.41
2023-03-29T17:41:31.110Z,11.43
2023-03-29T17:46:33.438Z,11.48
2023-03-29T17:51:36.749Z,11.49
2023-03-29T17:56:38.521Z,11.39
2023-03-29T18:01:40.357Z,11.38
2023-03-29T18:06:43.608Z,11.35
2023-03-29T18:11:45.383Z,11.35
2023-03-29T18:16:47.243Z,11.36
2023-03-29T18:21:51.037Z,11.37
2023-03-29T18:26:52.784Z,11.32
2023-03-29T18:31:54.565Z,11.25
2023-03-29T18:36:57.722Z,11.24
2023-03-29T18:41:59.579Z,11.23
2023-03-29T18:47:01.585Z,11.24
2023-03-29T18:52:05.707Z,11.25
2023-03-29T18:57:07.433Z,11.25
2023-03-29T19:02:09.700Z,11.25
2023-03-29T19:07:12.751Z,11.23
2023-03-29T19:12:14.446Z,11.14
2023-03-29T19:17:16.398Z,11.11
2023-03-29T19:22:19.439Z,11.05
2023-03-29T19:27:21.243Z,11.07
2023-03-29T19:32:22.947Z,11.05
2023-03-29T19:37:26.426Z,11.05
2023-03-29T19:42:28.181Z,11.01
2023-03-29T19:47:29.982Z,10.97
2023-03-29T19:52:33.060Z,10.93
2023-03-29T19:57:34.895Z,10.94
2023-03-29T20:02:36.760Z,10.93
2023-03-29T20:07:39.808Z,10.84
2023-03-29T20:12:41.552Z,10.81
2023-03-29T20:17:43.366Z,10.80
2023-03-29T20:22:46.721Z,10.76
2023-03-29T20:27:49.424Z,10.74
2023-03-29T20:32:51.251Z,10.77
2023-03-29T20:37:54.366Z,10.73
2023-03-29T20:42:56.134Z,10.74
2023-03-29T20:47:58.090Z,10.76
2023-03-29T20:53:03.931Z,10.77
2023-03-29T20:58:06.080Z,10.82
2023-03-29T21:03:08.554Z,10.79
2023-03-29T21:08:11.844Z,10.75
2023-03-29T21:13:13.685Z,10.70
2023-03-29T21:18:15.710Z,10.61
2023-03-29T21:23:18.797Z,10.58
2023-03-29T21:28:20.529Z,10.57
2023-03-29T21:33:22.249Z,10.60
2023-03-29T21:38:25.372Z,10.60
2023-03-29T21:43:27.122Z,10.54
2023-03-29T21:48:29.103Z,10.51
2023-03-29T21:53:32.271Z,10.48
2023-03-29T21:58:34.086Z,10.46
2023-03-29T22:03:35.880Z,10.58
2023-03-29T22:08:40.766Z,10.58
2023-03-29T22:13:42.917Z,10.58
2023-03-29T22:18:49.079Z,10.59
2023-03-29T22:23:53.056Z,10.62
2023-03-29T22:28:54.900Z,10.67
2023-03-29T22:33:58.266Z,10.68
2023-03-29T22:39:01.496Z,10.57
2023-03-29T22:44:03.719Z,10.48
2023-03-29T22:49:06.115Z,10.50
2023-03-29T22:54:09.265Z,10.50
2023-03-29T22:59:11.051Z,10.52
2023-03-29T23:04:12.772Z,10.50
2023-03-29T23:09:16.582Z,10.43
2023-03-29T23:14:18.937Z,10.40
2023-03-29T23:19:20.828Z,10.33
2023-03-29T23:24:24.103Z,10.30
2023-03-29T23:29:26.348Z,10.25
2023-03-29T23:34:28.065Z,10.29
2023-03-29T23:39:31.339Z,10.34
2023-03-29T23:44:33.109Z,10.32
2023-03-29T23:49:36.244Z,10.27
2023-03-29T23:54:39.386Z,10.26
2023-03-29T23:59:41.116Z,10.22
